createdAt,value
2022-08-17T00:01:35.767Z,24.70
2022-08-17T00:04:19.124Z,23.50
2022-08-17T00:06:45.892Z,23.30
2022-08-17T00:09:18.266Z,23.50
2022-08-17T00:12:41.996Z,23.60
2022-08-17T00:14:36.074Z,24.25
2022-08-17T00:17:04.647Z,21.43
2022-08-17T00:19:32.670Z,23.42
2022-08-17T00:22:35.241Z,21.00
2022-08-17T00:24:47.462Z,22.42
2022-08-17T00:27:13.963Z,23.13
2022-08-17T00:29:40.574Z,22.53
2022-08-17T00:33:12.481Z,22.92
2022-08-17T00:34:53.736Z,23.33
2022-08-17T00:37:20.444Z,23.38
2022-08-17T00:39:47.043Z,24.95
2022-08-17T00:42:16.328Z,23.77
2022-08-17T00:44:42.903Z,23.85
2022-08-17T00:47:09.478Z,23.98
2022-08-17T00:49:35.966Z,22.67
2022-08-17T00:52:11.708Z,23.88
2022-08-17T00:54:42.484Z,23.83
2022-08-17T00:57:14.100Z,26.35
2022-08-17T01:00:02.384Z,27.35
2022-08-17T01:02:34.905Z,26.90
2022-08-17T01:05:09.508Z,28.83
2022-08-17T01:07:37.821Z,25.87
2022-08-17T01:10:08.909Z,25.38
2022-08-17T01:12:56.642Z,25.00
2022-08-17T01:15:23.527Z,25.70
2022-08-17T01:17:50.308Z,28.15
2022-08-17T01:20:16.909Z,28.03
2022-08-17T01:22:43.488Z,27.00
2022-08-17T01:25:12.623Z,28.00
2022-08-17T01:27:39.135Z,26.60
2022-08-17T01:30:56.628Z,26.92
2022-08-17T01:32:56.780Z,26.70
2022-08-17T01:35:23.295Z,27.67
2022-08-17T01:37:50.106Z,26.73
2022-08-17T01:40:28.965Z,27.00
2022-08-17T01:42:58.924Z,25.83
2022-08-17T01:45:33.030Z,24.10
2022-08-17T01:48:00.503Z,24.67
2022-08-17T01:50:30.193Z,24.20
2022-08-17T01:53:01.939Z,23.23
2022-08-17T01:55:54.059Z,21.45
2022-08-17T01:58:21.438Z,22.97
2022-08-17T02:01:00.777Z,23.48
2022-08-17T02:03:28.726Z,23.63
2022-08-17T02:05:55.686Z,24.85
2022-08-17T02:08:39.245Z,24.17
2022-08-17T02:11:14.658Z,22.60
2022-08-17T02:13:42.107Z,23.55
2022-08-17T02:16:08.619Z,25.63
2022-08-17T02:18:35.120Z,26.27
2022-08-17T02:21:02.138Z,25.92
2022-08-17T02:23:32.354Z,26.73
2022-08-17T02:26:00.625Z,28.42
2022-08-17T02:28:28.497Z,25.35
2022-08-17T02:31:01.866Z,23.67
2022-08-17T02:33:41.598Z,25.10
2022-08-17T02:36:12.203Z,22.80
2022-08-17T02:38:40.586Z,25.23
2022-08-17T02:41:08.042Z,25.48
2022-08-17T02:43:34.927Z,24.70
2022-08-17T02:46:01.464Z,24.80
2022-08-17T02:48:31.427Z,23.13
2022-08-17T02:50:59.277Z,24.63
2022-08-17T02:53:26.084Z,24.70
2022-08-17T02:55:53.253Z,24.02
2022-08-17T02:58:35.075Z,24.02
2022-08-17T03:01:06.661Z,22.43
2022-08-17T03:03:34.660Z,23.08
2022-08-17T03:06:01.542Z,25.10
2022-08-17T03:08:28.883Z,24.98
2022-08-17T03:10:55.606Z,23.35
2022-08-17T03:13:22.991Z,23.00
2022-08-17T03:15:50.541Z,23.58
2022-08-17T03:18:24.513Z,23.35
2022-08-17T03:20:57.626Z,23.95
2022-08-17T03:23:25.406Z,23.17
2022-08-17T03:25:53.787Z,24.07
2022-08-17T03:28:21.779Z,23.48
2022-08-17T03:30:48.988Z,22.08
2022-08-17T03:33:16.213Z,22.65
2022-08-17T03:35:43.325Z,23.35
2022-08-17T03:38:11.938Z,22.63
2022-08-17T03:40:56.940Z,22.38
2022-08-17T03:43:28.094Z,21.98
2022-08-17T03:46:26.892Z,21.75
2022-08-17T03:49:13.995Z,22.13
2022-08-17T03:51:59.207Z,23.30
2022-08-17T03:54:44.048Z,24.33
2022-08-17T03:57:11.713Z,22.25
2022-08-17T03:59:38.854Z,21.63
2022-08-17T04:02:13.445Z,20.35
2022-08-17T04:04:40.273Z,18.90
2022-08-17T04:07:07.725Z,19.35
2022-08-17T04:09:34.650Z,19.05
2022-08-17T04:12:04.799Z,18.15
2022-08-17T04:14:37.856Z,18.00
2022-08-17T04:17:19.587Z,17.97
2022-08-17T04:19:46.577Z,16.30
2022-08-17T04:22:30.132Z,17.10
2022-08-17T04:24:59.753Z,15.85
2022-08-17T04:27:26.276Z,15.63
2022-08-17T04:29:54.714Z,16.53
2022-08-17T04:33:05.011Z,15.65
2022-08-17T04:35:10.014Z,15.55
2022-08-17T04:37:36.503Z,15.27
2022-08-17T04:40:22.875Z,14.10
2022-08-17T04:43:10.278Z,15.30
2022-08-17T04:45:54.995Z,14.43
2022-08-17T04:48:35.255Z,14.55
2022-08-17T04:51:05.618Z,13.88
2022-08-17T04:53:32.121Z,14.70
2022-08-17T04:55:59.120Z,14.87
2022-08-17T04:58:25.641Z,14.88
2022-08-17T05:00:52.740Z,14.30
2022-08-17T05:03:19.396Z,14.93
2022-08-17T05:05:52.118Z,15.88
2022-08-17T05:08:20.259Z,16.27
2022-08-17T05:10:48.353Z,19.00
2022-08-17T05:13:18.115Z,19.08
2022-08-17T05:15:47.766Z,16.80
2022-08-17T05:18:15.525Z,19.92
2022-08-17T05:20:43.307Z,18.73
2022-08-17T05:23:13.933Z,20.25
2022-08-17T05:25:47.393Z,21.98
2022-08-17T05:28:16.021Z,22.08
2022-08-17T05:30:43.758Z,21.75
2022-08-17T05:33:14.575Z,21.07
2022-08-17T05:35:44.395Z,21.77
2022-08-17T05:38:10.978Z,21.33
2022-08-17T05:40:38.385Z,20.33
2022-08-17T05:43:09.049Z,21.80
2022-08-17T05:45:55.245Z,20.13
2022-08-17T05:48:39.612Z,19.88
2022-08-17T05:51:15.493Z,18.35
2022-08-17T05:53:56.978Z,18.58
2022-08-17T05:57:01.004Z,17.50
2022-08-17T05:59:46.350Z,17.30
2022-08-17T06:02:31.356Z,16.27
2022-08-17T06:05:16.388Z,16.33
2022-08-17T06:07:57.678Z,15.70
2022-08-17T06:10:30.971Z,15.60
2022-08-17T06:13:18.819Z,15.53
2022-08-17T06:16:00.207Z,13.50
2022-08-17T06:18:31.385Z,13.95
2022-08-17T06:21:02.880Z,13.43
2022-08-17T06:24:05.360Z,12.73
2022-08-17T06:26:38.541Z,13.33
2022-08-17T06:29:28.947Z,13.32
2022-08-17T06:31:55.439Z,11.98
2022-08-17T06:34:21.949Z,12.82
2022-08-17T06:37:06.197Z,12.85
2022-08-17T06:39:57.274Z,10.63
2022-08-17T06:42:55.124Z,10.75
2022-08-17T06:46:16.983Z,11.77
2022-08-17T06:48:49.122Z,11.52
2022-08-17T06:51:22.811Z,11.65
2022-08-17T06:54:02.427Z,10.93
2022-08-17T06:56:54.446Z,11.40
2022-08-17T06:59:30.431Z,10.60
2022-08-17T07:03:02.681Z,11.52
2022-08-17T07:05:20.560Z,10.18
2022-08-17T07:08:03.844Z,11.33
2022-08-17T07:10:52.707Z,11.50
2022-08-17T07:13:51.200Z,11.10
2022-08-17T07:16:42.286Z,10.32
2022-08-17T07:19:11.013Z,10.02
2022-08-17T07:22:10.684Z,11.63
2022-08-17T07:24:58.540Z,11.63
2022-08-17T07:27:30.683Z,11.45
2022-08-17T07:30:04.658Z,11.80
2022-08-17T07:32:41.342Z,11.23
2022-08-17T07:35:18.543Z,13.97
2022-08-17T07:38:24.800Z,12.95
2022-08-17T07:40:57.673Z,13.63
2022-08-17T07:43:29.529Z,12.30
2022-08-17T07:46:36.082Z,12.90
2022-08-17T07:49:07.475Z,13.20
2022-08-17T07:52:24.807Z,14.35
2022-08-17T07:54:52.108Z,15.07
2022-08-17T07:57:29.400Z,15.70
2022-08-17T07:59:59.465Z,14.43
2022-08-17T08:02:38.657Z,15.20
2022-08-17T08:05:12.406Z,15.82
2022-08-17T08:07:56.841Z,15.48
2022-08-17T08:10:38.408Z,16.33
2022-08-17T08:13:24.153Z,14.63
2022-08-17T08:15:54.790Z,16.40
2022-08-17T08:18:38.748Z,17.73
2022-08-17T08:21:21.871Z,17.83
2022-08-17T08:23:59.233Z,18.00
2022-08-17T08:26:37.444Z,15.82
2022-08-17T08:29:41.700Z,17.23
2022-08-17T08:32:13.410Z,16.63
2022-08-17T08:35:03.613Z,13.95
2022-08-17T08:37:57.739Z,17.23
2022-08-17T08:40:36.385Z,16.50
2022-08-17T08:43:36.335Z,15.07
2022-08-17T08:46:19.650Z,15.68
2022-08-17T08:49:11.911Z,13.68
2022-08-17T08:51:55.671Z,13.25
2022-08-17T08:54:34.990Z,12.85
2022-08-17T08:57:25.366Z,13.33
2022-08-17T09:00:02.037Z,12.65
2022-08-17T09:02:40.543Z,13.25
2022-08-17T09:05:14.686Z,11.65
2022-08-17T09:08:01.190Z,11.80
2022-08-17T09:10:39.094Z,11.97
2022-08-17T09:13:39.256Z,11.95
2022-08-17T09:16:15.940Z,11.10
2022-08-17T09:19:01.264Z,12.68
2022-08-17T09:21:52.675Z,12.40
2022-08-17T09:24:37.269Z,14.57
2022-08-17T09:27:37.640Z,17.30
2022-08-17T09:30:10.826Z,17.08
2022-08-17T09:32:41.461Z,17.88
2022-08-17T09:35:25.069Z,18.73
2022-08-17T09:38:16.094Z,19.57
2022-08-17T09:40:54.467Z,17.80
2022-08-17T09:43:30.818Z,19.92
2022-08-17T09:46:20.249Z,18.10
2022-08-17T09:49:24.611Z,17.13
2022-08-17T09:52:01.058Z,16.83
2022-08-17T09:54:39.135Z,17.98
2022-08-17T09:57:31.808Z,15.65
2022-08-17T10:00:11.290Z,17.88
2022-08-17T10:03:03.022Z,17.10
2022-08-17T10:05:56.735Z,16.83
2022-08-17T10:08:44.631Z,14.88
2022-08-17T10:11:48.322Z,13.13
2022-08-17T10:14:53.657Z,13.43
2022-08-17T10:17:30.089Z,14.13
2022-08-17T10:20:15.157Z,13.40
2022-08-17T10:23:15.612Z,12.90
2022-08-17T10:26:07.121Z,13.27
2022-08-17T10:28:39.432Z,12.73
2022-08-17T10:34:25.185Z,13.00
2022-08-17T10:37:16.654Z,14.25
2022-08-17T10:39:53.046Z,13.25
2022-08-17T10:42:48.860Z,14.15
2022-08-17T10:45:26.375Z,14.40
2022-08-17T10:48:04.645Z,12.90
2022-08-17T10:50:50.525Z,13.73
2022-08-17T10:53:32.446Z,14.50
2022-08-17T10:56:14.019Z,14.60
2022-08-17T10:58:58.698Z,13.38
2022-08-17T11:01:34.522Z,12.47
2022-08-17T11:04:26.010Z,14.27
2022-08-17T11:07:29.544Z,14.93
2022-08-17T11:10:16.971Z,16.75
2022-08-17T11:13:01.455Z,15.73
2022-08-17T11:15:31.299Z,16.00
2022-08-17T11:18:07.627Z,16.17
2022-08-17T11:20:45.556Z,16.98
2022-08-17T11:23:30.378Z,18.25
2022-08-17T11:26:03.968Z,18.88
2022-08-17T11:28:35.867Z,18.43
2022-08-17T11:31:09.121Z,19.50
2022-08-17T11:33:36.620Z,18.90
2022-08-17T11:36:29.435Z,19.30
2022-08-17T11:39:02.634Z,19.25
2022-08-17T11:41:56.531Z,18.93
2022-08-17T11:45:02.608Z,20.23
2022-08-17T11:48:23.594Z,19.77
2022-08-17T11:51:08.735Z,20.38
2022-08-17T11:53:37.971Z,22.40
2022-08-17T11:56:30.278Z,22.77
2022-08-17T11:58:56.823Z,21.70
2022-08-17T12:01:23.272Z,22.48
2022-08-17T12:03:55.915Z,21.05
2022-08-17T12:06:30.437Z,21.30
2022-08-17T12:09:17.406Z,20.43
2022-08-17T12:12:11.276Z,21.00
2022-08-17T12:15:08.257Z,22.10
2022-08-17T12:17:40.716Z,21.23
2022-08-17T12:20:22.077Z,21.35
2022-08-17T12:23:04.016Z,21.67
2022-08-17T12:25:37.499Z,20.05
2022-08-17T12:28:19.862Z,19.42
2022-08-17T12:30:52.016Z,19.13
2022-08-17T12:33:25.395Z,19.67
2022-08-17T12:36:05.057Z,20.53
2022-08-17T12:38:34.772Z,22.63
2022-08-17T12:41:22.744Z,20.65
2022-08-17T12:43:58.595Z,21.95
2022-08-17T12:46:25.129Z,22.15
2022-08-17T12:48:59.127Z,23.23
2022-08-17T12:51:25.995Z,22.23
2022-08-17T12:53:54.872Z,22.90
2022-08-17T12:56:21.617Z,24.80
2022-08-17T12:58:54.377Z,24.35
2022-08-17T13:01:23.346Z,24.17
2022-08-17T13:03:53.657Z,24.30
2022-08-17T13:06:30.217Z,23.73
2022-08-17T13:08:56.905Z,25.58
2022-08-17T13:11:25.407Z,25.15
2022-08-17T13:13:56.099Z,25.60
2022-08-17T13:16:26.864Z,27.30
2022-08-17T13:18:59.205Z,28.20
2022-08-17T13:21:30.539Z,27.23
2022-08-17T13:24:02.691Z,27.52
2022-08-17T13:26:36.735Z,29.80
2022-08-17T13:29:28.648Z,26.23
2022-08-17T13:32:14.018Z,28.42
2022-08-17T13:35:12.922Z,27.20
2022-08-17T13:37:57.743Z,25.70
2022-08-17T13:40:37.246Z,27.80
2022-08-17T13:43:05.336Z,27.65
2022-08-17T13:45:43.493Z,27.70
2022-08-17T13:48:17.065Z,27.13
2022-08-17T13:50:55.398Z,26.33
2022-08-17T13:53:25.502Z,29.13
2022-08-17T13:55:56.095Z,26.92
2022-08-17T13:58:26.643Z,27.48
2022-08-17T14:00:54.335Z,28.55
2022-08-17T14:03:20.996Z,28.23
2022-08-17T14:05:50.177Z,27.70
2022-08-17T14:08:20.676Z,28.35
2022-08-17T14:10:58.267Z,28.48
2022-08-17T14:13:24.826Z,28.75
2022-08-17T14:15:55.038Z,28.98
2022-08-17T14:18:34.277Z,29.17
2022-08-17T14:21:10.204Z,27.52
2022-08-17T14:23:37.783Z,28.27
2022-08-17T14:26:04.737Z,29.45
2022-08-17T14:28:32.076Z,26.83
2022-08-17T14:30:59.955Z,27.50
2022-08-17T14:33:28.102Z,28.20
2022-08-17T14:35:54.812Z,29.48
2022-08-17T14:38:21.387Z,30.00
2022-08-17T14:40:48.336Z,29.52
2022-08-17T14:43:15.805Z,29.40
2022-08-17T14:45:43.218Z,28.35
2022-08-17T14:48:10.172Z,29.13
2022-08-17T14:50:42.265Z,29.55
2022-08-17T14:53:12.053Z,27.50
2022-08-17T14:55:40.404Z,27.27
2022-08-17T14:58:08.724Z,27.58
2022-08-17T15:00:35.907Z,29.02
2022-08-17T15:03:03.359Z,26.60
2022-08-17T15:05:34.132Z,26.92
2022-08-17T15:08:01.931Z,26.97
2022-08-17T15:10:29.451Z,28.08
2022-08-17T15:12:56.377Z,26.90
2022-08-17T15:15:23.985Z,27.63
2022-08-17T15:17:51.645Z,25.75
2022-08-17T15:20:24.836Z,28.63
2022-08-17T15:22:55.657Z,26.42
2022-08-17T15:25:23.260Z,25.75
2022-08-17T15:27:50.226Z,27.48
2022-08-17T15:30:16.890Z,26.92
2022-08-17T15:32:45.861Z,26.03
2022-08-17T15:35:27.288Z,25.27
2022-08-17T15:37:57.341Z,26.60
2022-08-17T15:40:25.024Z,26.45
2022-08-17T15:42:51.634Z,26.23
2022-08-17T15:45:22.521Z,24.83
2022-08-17T15:47:49.005Z,26.50
2022-08-17T15:50:15.572Z,25.17
2022-08-17T15:52:44.860Z,25.95
2022-08-17T15:55:13.425Z,24.30
2022-08-17T15:57:40.602Z,24.83
2022-08-17T16:00:09.308Z,25.23
2022-08-17T16:03:15.060Z,25.17
2022-08-17T16:05:24.973Z,26.88
2022-08-17T16:07:52.915Z,26.25
2022-08-17T16:10:20.983Z,26.73
2022-08-17T16:12:49.089Z,25.27
2022-08-17T16:15:17.110Z,26.50
2022-08-17T16:17:43.767Z,26.65
2022-08-17T16:20:20.579Z,25.92
2022-08-17T16:22:49.613Z,24.53
2022-08-17T16:25:21.666Z,26.80
2022-08-17T16:27:53.383Z,24.80
2022-08-17T16:30:23.142Z,24.95
2022-08-17T16:32:53.861Z,23.58
2022-08-17T16:35:22.472Z,24.50
2022-08-17T16:37:49.207Z,23.80
2022-08-17T16:40:16.938Z,24.88
2022-08-17T16:42:48.361Z,25.27
2022-08-17T16:45:22.213Z,23.23
2022-08-17T16:47:50.090Z,22.33
2022-08-17T16:50:21.032Z,23.35
2022-08-17T16:52:48.601Z,22.33
2022-08-17T16:55:18.734Z,22.65
2022-08-17T16:57:50.080Z,21.05
2022-08-17T17:00:17.818Z,20.30
2022-08-17T17:02:47.289Z,20.45
2022-08-17T17:05:19.959Z,18.90
2022-08-17T17:07:57.702Z,18.35
2022-08-17T17:10:37.263Z,18.17
2022-08-17T17:13:07.635Z,18.87
2022-08-17T17:15:46.283Z,19.77
2022-08-17T17:18:15.443Z,21.60
2022-08-17T17:20:54.597Z,21.23
2022-08-17T17:23:38.054Z,21.13
2022-08-17T17:26:17.009Z,21.60
2022-08-17T17:29:07.999Z,22.58
2022-08-17T17:31:45.145Z,22.15
2022-08-17T17:34:16.047Z,21.27
2022-08-17T17:36:57.842Z,21.00
2022-08-17T17:39:52.521Z,20.40
2022-08-17T17:42:22.146Z,22.27
2022-08-17T17:45:03.466Z,23.15
2022-08-17T17:47:31.677Z,23.00
2022-08-17T17:50:00.890Z,23.02
2022-08-17T17:52:40.954Z,23.43
2022-08-17T17:55:33.336Z,23.02
2022-08-17T17:58:19.601Z,21.00
2022-08-17T18:00:58.212Z,22.58
2022-08-17T18:03:42.814Z,23.02
2022-08-17T18:06:18.641Z,23.83
2022-08-17T18:09:18.157Z,23.80
2022-08-17T18:12:10.897Z,20.85
2022-08-17T18:14:55.148Z,23.63
2022-08-17T18:17:22.170Z,23.20
2022-08-17T18:19:48.843Z,22.70
2022-08-17T18:22:18.922Z,23.27
2022-08-17T18:24:55.839Z,24.45
2022-08-17T18:27:37.528Z,22.45
2022-08-17T18:30:13.140Z,26.13
2022-08-17T18:32:43.599Z,25.67
2022-08-17T18:35:10.325Z,26.20
2022-08-17T18:38:20.416Z,26.23
2022-08-17T18:40:58.088Z,26.13
2022-08-17T18:43:44.090Z,25.92
2022-08-17T18:46:28.584Z,24.90
2022-08-17T18:49:28.226Z,24.35
2022-08-17T18:52:24.268Z,26.30
2022-08-17T18:55:23.547Z,24.40
2022-08-17T18:57:52.864Z,28.38
2022-08-17T19:00:36.938Z,27.80
2022-08-17T19:03:18.825Z,29.90
2022-08-17T19:05:50.876Z,29.27
2022-08-17T19:08:29.721Z,30.42
2022-08-17T19:11:26.103Z,28.77
2022-08-17T19:14:02.063Z,30.60
2022-08-17T19:16:45.875Z,31.55
2022-08-17T19:19:32.107Z,32.45
2022-08-17T19:22:13.680Z,32.88
2022-08-17T19:24:58.159Z,34.15
2022-08-17T19:28:01.604Z,32.57
2022-08-17T19:30:29.994Z,32.53
2022-08-17T19:32:58.414Z,33.85
2022-08-17T19:35:39.213Z,32.97
2022-08-17T19:38:19.937Z,30.55
2022-08-17T19:41:07.617Z,31.63
2022-08-17T19:43:37.909Z,33.53
2022-08-17T19:46:25.912Z,31.25
2022-08-17T19:48:57.042Z,31.70
2022-08-17T19:51:40.562Z,30.17
2022-08-17T19:54:15.056Z,30.47
2022-08-17T19:56:56.525Z,29.77
2022-08-17T19:59:48.833Z,28.55
2022-08-17T20:02:41.946Z,27.17
2022-08-17T20:05:21.460Z,28.38
2022-08-17T20:08:08.538Z,28.73
2022-08-17T20:10:47.370Z,29.10
2022-08-17T20:13:33.270Z,29.60
2022-08-17T20:16:01.449Z,31.55
2022-08-17T20:18:38.061Z,29.92
2022-08-17T20:21:19.849Z,30.07
2022-08-17T20:23:58.025Z,29.15
2022-08-17T20:26:37.222Z,28.55
2022-08-17T20:29:15.318Z,29.15
2022-08-17T20:31:54.030Z,27.83
2022-08-17T20:34:33.684Z,27.93
2022-08-17T20:37:12.455Z,27.48
2022-08-17T20:39:42.743Z,23.85
2022-08-17T20:42:15.423Z,24.48
2022-08-17T20:44:43.218Z,24.15
2022-08-17T20:47:27.254Z,25.23
2022-08-17T20:50:33.541Z,26.38
2022-08-17T20:53:03.972Z,27.77
2022-08-17T20:55:52.070Z,28.85
2022-08-17T20:58:25.194Z,26.77
2022-08-17T21:00:57.765Z,28.80
2022-08-17T21:03:24.373Z,27.70
2022-08-17T21:06:00.422Z,28.13
2022-08-17T21:08:35.581Z,28.15
2022-08-17T21:11:58.237Z,26.85
2022-08-17T21:14:33.223Z,26.87
2022-08-17T21:17:29.671Z,26.98
2022-08-17T21:20:12.733Z,26.50
2022-08-17T21:22:45.375Z,29.02
2022-08-17T21:25:37.141Z,28.50
2022-08-17T21:28:21.010Z,27.63
2022-08-17T21:30:59.171Z,27.90
2022-08-17T21:33:31.550Z,27.70
2022-08-17T21:36:11.453Z,29.10
2022-08-17T21:38:57.402Z,28.02
2022-08-17T21:41:34.263Z,28.30
2022-08-17T21:44:30.586Z,28.02
2022-08-17T21:47:23.632Z,26.17
2022-08-17T21:49:54.985Z,27.70
2022-08-17T21:52:24.487Z,27.02
2022-08-17T21:54:58.511Z,27.23
2022-08-17T21:57:27.901Z,26.20
2022-08-17T22:00:01.440Z,27.63
2022-08-17T22:02:35.057Z,27.65
2022-08-17T22:05:06.689Z,25.83
2022-08-17T22:08:21.913Z,23.90
2022-08-17T22:10:51.277Z,24.95
2022-08-17T22:13:17.949Z,24.42
2022-08-17T22:16:29.414Z,25.25
2022-08-17T22:18:58.823Z,23.08
2022-08-17T22:21:26.107Z,21.77
2022-08-17T22:24:24.624Z,23.13
2022-08-17T22:27:11.479Z,21.55
2022-08-17T22:29:57.149Z,21.58
2022-08-17T22:32:51.305Z,21.90
2022-08-17T22:35:17.740Z,21.43
2022-08-17T22:37:44.398Z,22.35
2022-08-17T22:40:24.826Z,22.45
2022-08-17T22:42:51.625Z,21.30
2022-08-17T22:45:18.135Z,21.50
2022-08-17T22:47:48.792Z,22.13
2022-08-17T22:50:25.932Z,21.85
2022-08-17T22:53:21.972Z,20.75
2022-08-17T22:56:13.453Z,19.15
2022-08-17T22:59:10.804Z,19.95
2022-08-17T23:01:39.094Z,21.37
2022-08-17T23:04:27.872Z,20.05
2022-08-17T23:06:54.327Z,20.15
2022-08-17T23:09:21.449Z,19.02
2022-08-17T23:11:52.304Z,20.73
2022-08-17T23:14:20.570Z,20.20
2022-08-17T23:16:48.940Z,20.02
2022-08-17T23:19:19.483Z,19.42
2022-08-17T23:21:46.326Z,18.83
2022-08-17T23:24:27.837Z,18.35
2022-08-17T23:26:57.207Z,19.37
2022-08-17T23:29:24.910Z,19.40
2022-08-17T23:31:52.344Z,18.75
2022-08-17T23:34:19.612Z,19.33
2022-08-17T23:36:50.670Z,18.33
2022-08-17T23:39:27.366Z,18.50
2022-08-17T23:41:56.094Z,17.83
2022-08-17T23:44:25.470Z,17.60
2022-08-17T23:46:53.614Z,18.50
2022-08-17T23:49:20.537Z,16.05
2022-08-17T23:51:48.207Z,18.33
2022-08-17T23:54:33.529Z,17.77
2022-08-17T23:57:04.854Z,16.67
2022-08-17T23:59:32.892Z,15.32
